sensor_id;sensor_type;location;lat;lon;timestamp;temperature;humidity
19906;DHT22;10115;50.906;4.438;2022-10-31T00:00:17;15.00;99.90
19906;DHT22;10115;50.906;4.438;2022-10-31T00:02:43;14.90;99.90
19906;DHT22;10115;50.906;4.438;2022-10-31T00:05:09;15.10;99.90
19906;DHT22;10115;50.906;4.438;2022-10-31T00:07:34;14.90;99.90
19906;DHT22;10115;50.906;4.438;2022-10-31T00:10:00;14.90;99.90
19906;DHT22;10115;50.906;4.438;2022-10-31T00:12:26;14.80;99.90
19906;DHT22;10115;50.906;4.438;2022-10-31T00:14:52;14.70;99.90
19906;DHT22;10115;50.906;4.438;2022-10-31T00:17:17;14.70;99.90
19906;DHT22;10115;50.906;4.438;2022-10-31T00:19:43;14.70;99.90
19906;DHT22;10115;50.906;4.438;2022-10-31T00:22:09;14.70;99.90
19906;DHT22;10115;50.906;4.438;2022-10-31T00:24:35;14.70;99.90
19906;DHT22;10115;50.906;4.438;2022-10-31T00:27:00;14.60;99.90
19906;DHT22;10115;50.906;4.438;2022-10-31T00:29:26;14.50;99.90
19906;DHT22;10115;50.906;4.438;2022-10-31T00:31:52;14.50;99.90
19906;DHT22;10115;50.906;4.438;2022-10-31T00:34:18;14.50;99.90
19906;DHT22;10115;50.906;4.438;2022-10-31T00:36:44;14.40;99.90
19906;DHT22;10115;50.906;4.438;2022-10-31T00:39:09;14.40;99.90
19906;DHT22;10115;50.906;4.438;2022-10-31T00:41:35;14.40;99.90
19906;DHT22;10115;50.906;4.438;2022-10-31T00:44:01;14.20;99.90
19906;DHT22;10115;50.906;4.438;2022-10-31T00:46:26;14.10;99.90
19906;DHT22;10115;50.906;4.438;2022-10-31T00:48:52;14.20;99.90
19906;DHT22;10115;50.906;4.438;2022-10-31T00:51:18;14.30;99.90
19906;DHT22;10115;50.906;4.438;2022-10-31T00:53:44;14.40;99.90
19906;DHT22;10115;50.906;4.438;2022-10-31T00:56:09;14.30;99.90
19906;DHT22;10115;50.906;4.438;2022-10-31T00:58:35;14.30;99.90
19906;DHT22;10115;50.906;4.438;2022-10-31T01:01:01;14.20;99.90
19906;DHT22;10115;50.906;4.438;2022-10-31T01:03:29;14.10;99.90
19906;DHT22;10115;50.906;4.438;2022-10-31T01:06:14;14.00;99.90
19906;DHT22;10115;50.906;4.438;2022-10-31T01:08:40;13.80;99.90
19906;DHT22;10115;50.906;4.438;2022-10-31T01:11:17;13.80;99.90
19906;DHT22;10115;50.906;4.438;2022-10-31T01:13:44;13.80;99.90
19906;DHT22;10115;50.906;4.438;2022-10-31T01:16:13;13.70;99.90
19906;DHT22;10115;50.906;4.438;2022-10-31T01:18:39;13.70;99.90
19906;DHT22;10115;50.906;4.438;2022-10-31T01:21:10;13.70;99.90
19906;DHT22;10115;50.906;4.438;2022-10-31T01:23:36;13.70;99.90
19906;DHT22;10115;50.906;4.438;2022-10-31T01:28:31;13.70;99.90
19906;DHT22;10115;50.906;4.438;2022-10-31T01:31:04;13.80;99.90
19906;DHT22;10115;50.906;4.438;2022-10-31T01:33:30;13.70;99.90
19906;DHT22;10115;50.906;4.438;2022-10-31T01:35:56;13.60;99.90
19906;DHT22;10115;50.906;4.438;2022-10-31T01:38:22;13.60;99.90
19906;DHT22;10115;50.906;4.438;2022-10-31T01:40:48;13.60;99.90
19906;DHT22;10115;50.906;4.438;2022-10-31T01:43:14;13.60;99.90
19906;DHT22;10115;50.906;4.438;2022-10-31T01:45:42;13.60;99.90
19906;DHT22;10115;50.906;4.438;2022-10-31T01:48:14;13.60;99.90
19906;DHT22;10115;50.906;4.438;2022-10-31T01:50:40;13.60;99.90
19906;DHT22;10115;50.906;4.438;2022-10-31T01:53:07;13.60;99.90
19906;DHT22;10115;50.906;4.438;2022-10-31T01:55:37;13.60;99.90
19906;DHT22;10115;50.906;4.438;2022-10-31T01:58:13;13.50;99.90
19906;DHT22;10115;50.906;4.438;2022-10-31T02:00:40;13.50;99.90
19906;DHT22;10115;50.906;4.438;2022-10-31T02:03:07;13.40;99.90
19906;DHT22;10115;50.906;4.438;2022-10-31T02:05:33;13.30;99.90
19906;DHT22;10115;50.906;4.438;2022-10-31T02:10:40;13.20;99.90
19906;DHT22;10115;50.906;4.438;2022-10-31T02:13:08;13.20;99.90
19906;DHT22;10115;50.906;4.438;2022-10-31T02:15:36;13.10;99.90
19906;DHT22;10115;50.906;4.438;2022-10-31T02:18:03;13.10;99.90
19906;DHT22;10115;50.906;4.438;2022-10-31T02:20:39;13.00;99.90
19906;DHT22;10115;50.906;4.438;2022-10-31T02:31:52;13.00;99.90
19906;DHT22;10115;50.906;4.438;2022-10-31T02:34:22;12.90;99.90
19906;DHT22;10115;50.906;4.438;2022-10-31T02:37:15;13.00;99.90
19906;DHT22;10115;50.906;4.438;2022-10-31T02:47:37;12.70;99.90
19906;DHT22;10115;50.906;4.438;2022-10-31T02:52:33;12.70;99.90
19906;DHT22;10115;50.906;4.438;2022-10-31T02:55:10;12.60;99.90
19906;DHT22;10115;50.906;4.438;2022-10-31T02:57:36;12.60;99.90
19906;DHT22;10115;50.906;4.438;2022-10-31T03:00:07;12.60;99.90
19906;DHT22;10115;50.906;4.438;2022-10-31T03:08:06;12.40;99.90
19906;DHT22;10115;50.906;4.438;2022-10-31T03:19:49;12.40;99.90
19906;DHT22;10115;50.906;4.438;2022-10-31T03:22:00;12.30;99.90
19906;DHT22;10115;50.906;4.438;2022-10-31T03:24:31;12.40;99.90
19906;DHT22;10115;50.906;4.438;2022-10-31T03:26:59;12.30;99.90
19906;DHT22;10115;50.906;4.438;2022-10-31T03:29:28;12.30;99.90
19906;DHT22;10115;50.906;4.438;2022-10-31T03:31:59;12.20;99.90
19906;DHT22;10115;50.906;4.438;2022-10-31T03:34:27;12.20;99.90
19906;DHT22;10115;50.906;4.438;2022-10-31T03:36:57;12.20;99.90
19906;DHT22;10115;50.906;4.438;2022-10-31T03:39:25;12.20;99.90
19906;DHT22;10115;50.906;4.438;2022-10-31T03:42:22;12.10;99.90
19906;DHT22;10115;50.906;4.438;2022-10-31T03:44:55;12.10;99.90
19906;DHT22;10115;50.906;4.438;2022-10-31T03:47:23;11.90;99.90
19906;DHT22;10115;50.906;4.438;2022-10-31T03:49:49;11.90;99.90
19906;DHT22;10115;50.906;4.438;2022-10-31T03:52:47;12.00;99.90
19906;DHT22;10115;50.906;4.438;2022-10-31T03:55:24;11.90;99.90
19906;DHT22;10115;50.906;4.438;2022-10-31T04:00:23;11.80;99.90
19906;DHT22;10115;50.906;4.438;2022-10-31T04:05:49;11.80;99.90
19906;DHT22;10115;50.906;4.438;2022-10-31T04:08:20;11.80;99.90
19906;DHT22;10115;50.906;4.438;2022-10-31T04:10:48;11.70;99.90
19906;DHT22;10115;50.906;4.438;2022-10-31T04:13:19;11.70;99.90
19906;DHT22;10115;50.906;4.438;2022-10-31T04:15:46;11.70;99.90
19906;DHT22;10115;50.906;4.438;2022-10-31T04:18:13;11.70;99.90
19906;DHT22;10115;50.906;4.438;2022-10-31T04:20:40;11.80;99.90
19906;DHT22;10115;50.906;4.438;2022-10-31T04:23:17;11.70;99.90
19906;DHT22;10115;50.906;4.438;2022-10-31T04:25:43;11.70;99.90
19906;DHT22;10115;50.906;4.438;2022-10-31T04:28:09;11.60;99.90
19906;DHT22;10115;50.906;4.438;2022-10-31T04:30:34;11.60;99.90
19906;DHT22;10115;50.906;4.438;2022-10-31T04:33:00;11.60;99.90
19906;DHT22;10115;50.906;4.438;2022-10-31T04:35:26;11.50;99.90
19906;DHT22;10115;50.906;4.438;2022-10-31T04:37:51;11.50;99.90
19906;DHT22;10115;50.906;4.438;2022-10-31T04:40:17;11.40;99.90
19906;DHT22;10115;50.906;4.438;2022-10-31T04:42:43;11.50;99.90
19906;DHT22;10115;50.906;4.438;2022-10-31T04:45:08;11.50;99.90
19906;DHT22;10115;50.906;4.438;2022-10-31T04:47:34;11.50;99.90
19906;DHT22;10115;50.906;4.438;2022-10-31T04:50:00;11.50;99.90
19906;DHT22;10115;50.906;4.438;2022-10-31T04:52:26;11.60;99.90
19906;DHT22;10115;50.906;4.438;2022-10-31T04:54:52;11.60;99.90
19906;DHT22;10115;50.906;4.438;2022-10-31T04:57:18;11.60;99.90
19906;DHT22;10115;50.906;4.438;2022-10-31T04:59:43;11.60;99.90
19906;DHT22;10115;50.906;4.438;2022-10-31T05:02:09;11.60;99.90
19906;DHT22;10115;50.906;4.438;2022-10-31T05:04:34;11.60;99.90
19906;DHT22;10115;50.906;4.438;2022-10-31T05:07:00;11.60;99.90
19906;DHT22;10115;50.906;4.438;2022-10-31T05:09:25;11.60;99.90
19906;DHT22;10115;50.906;4.438;2022-10-31T05:11:51;11.70;99.90
19906;DHT22;10115;50.906;4.438;2022-10-31T05:14:17;11.80;99.90
19906;DHT22;10115;50.906;4.438;2022-10-31T05:16:42;11.90;99.90
19906;DHT22;10115;50.906;4.438;2022-10-31T05:19:08;12.00;99.90
19906;DHT22;10115;50.906;4.438;2022-10-31T05:21:34;12.10;99.90
19906;DHT22;10115;50.906;4.438;2022-10-31T05:23:59;12.20;99.90
19906;DHT22;10115;50.906;4.438;2022-10-31T05:26:25;12.30;99.90
19906;DHT22;10115;50.906;4.438;2022-10-31T05:28:51;12.30;99.90
19906;DHT22;10115;50.906;4.438;2022-10-31T05:31:16;12.20;99.90
19906;DHT22;10115;50.906;4.438;2022-10-31T05:33:42;12.30;99.90
19906;DHT22;10115;50.906;4.438;2022-10-31T05:36:08;12.20;99.90
19906;DHT22;10115;50.906;4.438;2022-10-31T05:38:33;12.30;99.90
19906;DHT22;10115;50.906;4.438;2022-10-31T05:40:59;12.30;99.90
19906;DHT22;10115;50.906;4.438;2022-10-31T05:43:28;12.30;99.90
19906;DHT22;10115;50.906;4.438;2022-10-31T05:45:55;12.30;99.90
19906;DHT22;10115;50.906;4.438;2022-10-31T05:48:21;12.20;99.90
19906;DHT22;10115;50.906;4.438;2022-10-31T05:50:50;12.40;99.90
19906;DHT22;10115;50.906;4.438;2022-10-31T05:53:15;12.50;99.90
19906;DHT22;10115;50.906;4.438;2022-10-31T05:55:42;12.50;99.90
19906;DHT22;10115;50.906;4.438;2022-10-31T05:58:09;12.70;99.90
19906;DHT22;10115;50.906;4.438;2022-10-31T06:00:35;12.60;99.90
19906;DHT22;10115;50.906;4.438;2022-10-31T06:03:03;12.60;99.90
19906;DHT22;10115;50.906;4.438;2022-10-31T06:05:29;12.80;99.90
19906;DHT22;10115;50.906;4.438;2022-10-31T06:07:55;12.90;99.90
19906;DHT22;10115;50.906;4.438;2022-10-31T06:10:21;13.00;99.90
19906;DHT22;10115;50.906;4.438;2022-10-31T06:12:47;12.90;99.90
19906;DHT22;10115;50.906;4.438;2022-10-31T06:15:13;12.80;99.90
19906;DHT22;10115;50.906;4.438;2022-10-31T06:17:39;12.80;99.90
19906;DHT22;10115;50.906;4.438;2022-10-31T06:20:05;12.80;99.90
19906;DHT22;10115;50.906;4.438;2022-10-31T06:22:31;12.80;99.90
19906;DHT22;10115;50.906;4.438;2022-10-31T06:24:57;12.90;99.90
19906;DHT22;10115;50.906;4.438;2022-10-31T06:27:23;13.00;99.90
19906;DHT22;10115;50.906;4.438;2022-10-31T06:29:49;13.00;99.90
19906;DHT22;10115;50.906;4.438;2022-10-31T06:32:15;13.00;99.90
19906;DHT22;10115;50.906;4.438;2022-10-31T06:34:41;13.10;99.90
19906;DHT22;10115;50.906;4.438;2022-10-31T06:37:11;13.10;99.90
19906;DHT22;10115;50.906;4.438;2022-10-31T06:39:37;13.20;99.90
19906;DHT22;10115;50.906;4.438;2022-10-31T06:42:03;13.20;99.90
19906;DHT22;10115;50.906;4.438;2022-10-31T06:44:29;13.20;99.90
19906;DHT22;10115;50.906;4.438;2022-10-31T06:46:55;13.30;99.90
19906;DHT22;10115;50.906;4.438;2022-10-31T06:49:21;13.30;99.90
19906;DHT22;10115;50.906;4.438;2022-10-31T06:51:47;13.30;99.90
19906;DHT22;10115;50.906;4.438;2022-10-31T06:54:13;13.40;99.90
19906;DHT22;10115;50.906;4.438;2022-10-31T06:56:39;13.40;99.90
19906;DHT22;10115;50.906;4.438;2022-10-31T06:59:05;13.40;99.90
19906;DHT22;10115;50.906;4.438;2022-10-31T07:01:30;13.50;99.90
19906;DHT22;10115;50.906;4.438;2022-10-31T07:03:56;13.50;99.90
19906;DHT22;10115;50.906;4.438;2022-10-31T07:06:21;13.50;99.90
19906;DHT22;10115;50.906;4.438;2022-10-31T07:08:47;13.70;99.90
19906;DHT22;10115;50.906;4.438;2022-10-31T07:11:13;13.60;99.90
19906;DHT22;10115;50.906;4.438;2022-10-31T07:13:38;13.70;99.90
19906;DHT22;10115;50.906;4.438;2022-10-31T07:16:05;13.80;99.90
19906;DHT22;10115;50.906;4.438;2022-10-31T07:18:33;13.80;99.90
19906;DHT22;10115;50.906;4.438;2022-10-31T07:20:58;13.90;99.90
19906;DHT22;10115;50.906;4.438;2022-10-31T07:23:24;13.90;99.90
19906;DHT22;10115;50.906;4.438;2022-10-31T07:25:55;13.90;99.90
19906;DHT22;10115;50.906;4.438;2022-10-31T07:28:21;14.10;99.90
19906;DHT22;10115;50.906;4.438;2022-10-31T07:30:50;14.10;99.90
19906;DHT22;10115;50.906;4.438;2022-10-31T07:33:16;14.10;99.90
19906;DHT22;10115;50.906;4.438;2022-10-31T07:35:42;14.20;99.90
19906;DHT22;10115;50.906;4.438;2022-10-31T07:38:12;14.10;99.90
19906;DHT22;10115;50.906;4.438;2022-10-31T07:40:38;14.20;99.90
19906;DHT22;10115;50.906;4.438;2022-10-31T07:43:05;14.30;99.90
19906;DHT22;10115;50.906;4.438;2022-10-31T07:45:30;14.50;99.90
19906;DHT22;10115;50.906;4.438;2022-10-31T07:47:56;14.40;99.90
19906;DHT22;10115;50.906;4.438;2022-10-31T07:50:27;14.40;99.90
19906;DHT22;10115;50.906;4.438;2022-10-31T07:55:28;14.50;99.90
19906;DHT22;10115;50.906;4.438;2022-10-31T07:57:59;14.50;99.90
19906;DHT22;10115;50.906;4.438;2022-10-31T08:00:25;14.40;99.90
19906;DHT22;10115;50.906;4.438;2022-10-31T08:03:11;14.50;99.90
19906;DHT22;10115;50.906;4.438;2022-10-31T08:05:37;14.50;99.90
19906;DHT22;10115;50.906;4.438;2022-10-31T08:08:04;14.50;99.90
19906;DHT22;10115;50.906;4.438;2022-10-31T08:10:31;14.40;99.90
19906;DHT22;10115;50.906;4.438;2022-10-31T08:12:59;14.20;99.90
19906;DHT22;10115;50.906;4.438;2022-10-31T08:15:25;14.30;99.90
19906;DHT22;10115;50.906;4.438;2022-10-31T08:17:51;14.30;99.90
19906;DHT22;10115;50.906;4.438;2022-10-31T08:20:17;14.40;99.90
19906;DHT22;10115;50.906;4.438;2022-10-31T08:22:43;14.50;99.90
19906;DHT22;10115;50.906;4.438;2022-10-31T08:25:08;14.60;99.90
19906;DHT22;10115;50.906;4.438;2022-10-31T08:27:34;14.80;99.90
19906;DHT22;10115;50.906;4.438;2022-10-31T08:29:59;14.90;99.90
19906;DHT22;10115;50.906;4.438;2022-10-31T08:32:25;14.90;99.90
19906;DHT22;10115;50.906;4.438;2022-10-31T08:34:51;15.00;99.90
19906;DHT22;10115;50.906;4.438;2022-10-31T08:37:16;15.00;99.90
19906;DHT22;10115;50.906;4.438;2022-10-31T08:39:48;14.90;99.90
19906;DHT22;10115;50.906;4.438;2022-10-31T08:42:14;14.90;99.90
19906;DHT22;10115;50.906;4.438;2022-10-31T08:44:39;15.10;99.90
19906;DHT22;10115;50.906;4.438;2022-10-31T08:47:05;15.10;99.90
19906;DHT22;10115;50.906;4.438;2022-10-31T08:49:31;15.30;99.90
19906;DHT22;10115;50.906;4.438;2022-10-31T08:51:56;15.10;99.90
19906;DHT22;10115;50.906;4.438;2022-10-31T08:54:22;15.20;99.90
19906;DHT22;10115;50.906;4.438;2022-10-31T08:56:48;15.30;99.90
19906;DHT22;10115;50.906;4.438;2022-10-31T08:59:18;15.30;99.90
19906;DHT22;10115;50.906;4.438;2022-10-31T09:01:44;15.20;99.90
19906;DHT22;10115;50.906;4.438;2022-10-31T09:04:10;15.20;99.90
19906;DHT22;10115;50.906;4.438;2022-10-31T09:06:36;15.00;99.90
19906;DHT22;10115;50.906;4.438;2022-10-31T09:09:01;15.20;99.90
19906;DHT22;10115;50.906;4.438;2022-10-31T09:11:27;15.40;99.90
19906;DHT22;10115;50.906;4.438;2022-10-31T09:13:55;15.40;99.90
19906;DHT22;10115;50.906;4.438;2022-10-31T09:16:20;15.50;99.90
19906;DHT22;10115;50.906;4.438;2022-10-31T09:18:46;15.70;99.90
19906;DHT22;10115;50.906;4.438;2022-10-31T09:21:12;15.70;99.90
19906;DHT22;10115;50.906;4.438;2022-10-31T09:23:37;15.80;99.90
19906;DHT22;10115;50.906;4.438;2022-10-31T09:26:03;15.90;99.90
19906;DHT22;10115;50.906;4.438;2022-10-31T09:28:29;15.70;99.90
19906;DHT22;10115;50.906;4.438;2022-10-31T09:30:55;15.70;99.90
19906;DHT22;10115;50.906;4.438;2022-10-31T09:33:21;15.80;99.90
19906;DHT22;10115;50.906;4.438;2022-10-31T09:35:47;16.10;99.90
19906;DHT22;10115;50.906;4.438;2022-10-31T09:38:15;16.20;99.90
19906;DHT22;10115;50.906;4.438;2022-10-31T09:40:44;16.00;99.90
19906;DHT22;10115;50.906;4.438;2022-10-31T09:43:20;15.80;99.90
19906;DHT22;10115;50.906;4.438;2022-10-31T09:46:31;15.70;99.90
19906;DHT22;10115;50.906;4.438;2022-10-31T09:51:23;15.60;99.90
19906;DHT22;10115;50.906;4.438;2022-10-31T09:56:20;15.60;99.90
19906;DHT22;10115;50.906;4.438;2022-10-31T09:58:51;15.70;99.90
19906;DHT22;10115;50.906;4.438;2022-10-31T10:01:51;15.80;99.90
19906;DHT22;10115;50.906;4.438;2022-10-31T10:09:54;16.20;99.90
19906;DHT22;10115;50.906;4.438;2022-10-31T10:17:42;16.50;99.90
19906;DHT22;10115;50.906;4.438;2022-10-31T10:21:03;16.70;99.90
19906;DHT22;10115;50.906;4.438;2022-10-31T10:23:23;16.80;99.90
19906;DHT22;10115;50.906;4.438;2022-10-31T10:28:39;17.10;99.90
19906;DHT22;10115;50.906;4.438;2022-10-31T10:31:08;17.30;99.90
19906;DHT22;10115;50.906;4.438;2022-10-31T10:36:12;17.80;99.90
19906;DHT22;10115;50.906;4.438;2022-10-31T10:41:21;17.70;99.90
19906;DHT22;10115;50.906;4.438;2022-10-31T10:43:51;17.70;99.90
19906;DHT22;10115;50.906;4.438;2022-10-31T10:46:30;17.80;99.90
19906;DHT22;10115;50.906;4.438;2022-10-31T10:49:40;17.70;99.90
19906;DHT22;10115;50.906;4.438;2022-10-31T11:00:40;17.70;99.90
19906;DHT22;10115;50.906;4.438;2022-10-31T11:03:07;17.80;99.90
19906;DHT22;10115;50.906;4.438;2022-10-31T11:05:55;17.80;99.90
19906;DHT22;10115;50.906;4.438;2022-10-31T11:08:25;17.70;99.90
19906;DHT22;10115;50.906;4.438;2022-10-31T11:11:02;17.90;99.90
19906;DHT22;10115;50.906;4.438;2022-10-31T11:13:30;18.10;99.90
19906;DHT22;10115;50.906;4.438;2022-10-31T11:16:03;18.20;99.90
19906;DHT22;10115;50.906;4.438;2022-10-31T11:18:30;18.20;99.90
19906;DHT22;10115;50.906;4.438;2022-10-31T11:21:00;18.20;99.90
19906;DHT22;10115;50.906;4.438;2022-10-31T11:23:27;18.30;99.90
19906;DHT22;10115;50.906;4.438;2022-10-31T11:26:02;18.20;99.90
19906;DHT22;10115;50.906;4.438;2022-10-31T11:28:29;18.30;99.90
19906;DHT22;10115;50.906;4.438;2022-10-31T11:30:56;18.50;99.90
19906;DHT22;10115;50.906;4.438;2022-10-31T11:33:44;18.60;99.90
19906;DHT22;10115;50.906;4.438;2022-10-31T11:36:29;18.80;99.90
19906;DHT22;10115;50.906;4.438;2022-10-31T11:38:55;18.80;99.90
19906;DHT22;10115;50.906;4.438;2022-10-31T11:41:36;18.90;99.90
19906;DHT22;10115;50.906;4.438;2022-10-31T11:44:26;18.60;99.90
19906;DHT22;10115;50.906;4.438;2022-10-31T11:46:56;18.10;99.90
19906;DHT22;10115;50.906;4.438;2022-10-31T11:49:27;18.10;99.90
19906;DHT22;10115;50.906;4.438;2022-10-31T11:51:56;18.10;99.90
19906;DHT22;10115;50.906;4.438;2022-10-31T11:54:32;18.00;99.90
19906;DHT22;10115;50.906;4.438;2022-10-31T11:56:58;18.20;99.90
19906;DHT22;10115;50.906;4.438;2022-10-31T11:59:29;18.40;99.90
19906;DHT22;10115;50.906;4.438;2022-10-31T12:01:57;18.50;99.90
19906;DHT22;10115;50.906;4.438;2022-10-31T12:04:45;18.50;99.90
19906;DHT22;10115;50.906;4.438;2022-10-31T12:07:12;18.80;99.90
19906;DHT22;10115;50.906;4.438;2022-10-31T12:09:38;19.10;99.90
19906;DHT22;10115;50.906;4.438;2022-10-31T12:12:33;19.30;99.90
19906;DHT22;10115;50.906;4.438;2022-10-31T12:17:40;19.60;99.90
19906;DHT22;10115;50.906;4.438;2022-10-31T12:23:14;19.50;99.90
19906;DHT22;10115;50.906;4.438;2022-10-31T12:28:41;19.70;99.90
19906;DHT22;10115;50.906;4.438;2022-10-31T12:31:32;19.60;99.90
19906;DHT22;10115;50.906;4.438;2022-10-31T12:45:51;19.60;99.90
19906;DHT22;10115;50.906;4.438;2022-10-31T12:54:02;19.50;99.90
19906;DHT22;10115;50.906;4.438;2022-10-31T12:56:59;19.70;99.90
19906;DHT22;10115;50.906;4.438;2022-10-31T12:59:40;19.60;99.90
19906;DHT22;10115;50.906;4.438;2022-10-31T13:05:02;19.90;99.90
19906;DHT22;10115;50.906;4.438;2022-10-31T13:07:36;20.10;99.90
19906;DHT22;10115;50.906;4.438;2022-10-31T13:12:39;20.10;99.90
19906;DHT22;10115;50.906;4.438;2022-10-31T13:15:26;20.20;99.90
19906;DHT22;10115;50.906;4.438;2022-10-31T13:18:02;20.20;99.90
19906;DHT22;10115;50.906;4.438;2022-10-31T13:20:41;20.30;99.90
19906;DHT22;10115;50.906;4.438;2022-10-31T13:23:31;20.40;99.90
19906;DHT22;10115;50.906;4.438;2022-10-31T13:26:01;20.40;99.90
19906;DHT22;10115;50.906;4.438;2022-10-31T13:28:31;20.30;99.90
19906;DHT22;10115;50.906;4.438;2022-10-31T13:30:59;20.40;99.90
19906;DHT22;10115;50.906;4.438;2022-10-31T13:33:34;20.30;99.90
19906;DHT22;10115;50.906;4.438;2022-10-31T13:36:14;20.40;99.90
19906;DHT22;10115;50.906;4.438;2022-10-31T13:46:39;22.20;99.90
19906;DHT22;10115;50.906;4.438;2022-10-31T13:52:11;23.00;99.90
19906;DHT22;10115;50.906;4.438;2022-10-31T13:54:48;24.30;99.90
19906;DHT22;10115;50.906;4.438;2022-10-31T13:57:19;23.90;99.90
19906;DHT22;10115;50.906;4.438;2022-10-31T13:59:58;24.70;99.90
19906;DHT22;10115;50.906;4.438;2022-10-31T14:02:33;24.30;99.90
19906;DHT22;10115;50.906;4.438;2022-10-31T14:05:21;24.00;99.90
19906;DHT22;10115;50.906;4.438;2022-10-31T14:07:47;24.50;99.90
19906;DHT22;10115;50.906;4.438;2022-10-31T14:10:29;25.10;99.90
19906;DHT22;10115;50.906;4.438;2022-10-31T14:13:20;25.00;99.90
19906;DHT22;10115;50.906;4.438;2022-10-31T14:19:00;23.80;99.90
19906;DHT22;10115;50.906;4.438;2022-10-31T14:21:36;23.60;99.90
19906;DHT22;10115;50.906;4.438;2022-10-31T14:24:14;24.00;99.90
19906;DHT22;10115;50.906;4.438;2022-10-31T14:26:54;24.30;99.90
19906;DHT22;10115;50.906;4.438;2022-10-31T14:29:24;24.30;99.90
19906;DHT22;10115;50.906;4.438;2022-10-31T14:34:34;23.60;99.90
19906;DHT22;10115;50.906;4.438;2022-10-31T14:46:22;22.60;99.90
19906;DHT22;10115;50.906;4.438;2022-10-31T14:51:21;22.20;99.90
19906;DHT22;10115;50.906;4.438;2022-10-31T14:53:53;22.10;99.90
19906;DHT22;10115;50.906;4.438;2022-10-31T14:56:27;22.00;99.90
19906;DHT22;10115;50.906;4.438;2022-10-31T14:58:57;21.60;99.90
19906;DHT22;10115;50.906;4.438;2022-10-31T15:01:31;21.20;99.90
19906;DHT22;10115;50.906;4.438;2022-10-31T15:04:09;21.30;99.90
19906;DHT22;10115;50.906;4.438;2022-10-31T15:06:47;21.80;99.90
19906;DHT22;10115;50.906;4.438;2022-10-31T15:09:25;21.30;99.90
19906;DHT22;10115;50.906;4.438;2022-10-31T15:11:51;21.10;99.90
19906;DHT22;10115;50.906;4.438;2022-10-31T15:14:25;21.10;99.90
19906;DHT22;10115;50.906;4.438;2022-10-31T15:16:51;20.80;99.90
19906;DHT22;10115;50.906;4.438;2022-10-31T15:19:24;20.50;99.90
19906;DHT22;10115;50.906;4.438;2022-10-31T15:21:54;20.00;99.90
19906;DHT22;10115;50.906;4.438;2022-10-31T15:24:24;19.70;99.90
19906;DHT22;10115;50.906;4.438;2022-10-31T15:26:54;19.50;99.90
19906;DHT22;10115;50.906;4.438;2022-10-31T15:29:25;19.20;99.90
19906;DHT22;10115;50.906;4.438;2022-10-31T15:32:00;19.00;99.90
19906;DHT22;10115;50.906;4.438;2022-10-31T15:34:29;18.80;99.90
19906;DHT22;10115;50.906;4.438;2022-10-31T15:36:56;18.60;99.90
19906;DHT22;10115;50.906;4.438;2022-10-31T15:39:22;18.50;99.90
19906;DHT22;10115;50.906;4.438;2022-10-31T15:41:51;18.50;99.90
19906;DHT22;10115;50.906;4.438;2022-10-31T15:49:32;18.00;99.90
19906;DHT22;10115;50.906;4.438;2022-10-31T15:57:43;17.40;99.90
19906;DHT22;10115;50.906;4.438;2022-10-31T16:00:27;17.40;99.90
19906;DHT22;10115;50.906;4.438;2022-10-31T16:03:05;17.40;99.90
19906;DHT22;10115;50.906;4.438;2022-10-31T16:05:43;17.30;99.90
19906;DHT22;10115;50.906;4.438;2022-10-31T16:10:57;17.40;99.90
19906;DHT22;10115;50.906;4.438;2022-10-31T16:13:32;17.30;99.90
19906;DHT22;10115;50.906;4.438;2022-10-31T16:16:04;17.10;99.90
19906;DHT22;10115;50.906;4.438;2022-10-31T16:18:38;17.00;99.90
19906;DHT22;10115;50.906;4.438;2022-10-31T16:21:06;16.90;99.90
19906;DHT22;10115;50.906;4.438;2022-10-31T16:23:32;16.80;99.90
19906;DHT22;10115;50.906;4.438;2022-10-31T16:25:57;16.80;99.90
19906;DHT22;10115;50.906;4.438;2022-10-31T16:28:27;16.70;99.90
19906;DHT22;10115;50.906;4.438;2022-10-31T16:30:56;16.80;99.90
19906;DHT22;10115;50.906;4.438;2022-10-31T16:33:33;16.80;99.90
19906;DHT22;10115;50.906;4.438;2022-10-31T16:38:53;16.80;99.90
19906;DHT22;10115;50.906;4.438;2022-10-31T16:41:19;16.60;99.90
19906;DHT22;10115;50.906;4.438;2022-10-31T16:43:45;16.50;99.90
19906;DHT22;10115;50.906;4.438;2022-10-31T16:46:27;16.30;99.90
19906;DHT22;10115;50.906;4.438;2022-10-31T16:48:53;16.30;99.90
19906;DHT22;10115;50.906;4.438;2022-10-31T16:51:19;16.20;99.90
19906;DHT22;10115;50.906;4.438;2022-10-31T16:53:45;16.20;99.90
19906;DHT22;10115;50.906;4.438;2022-10-31T16:56:21;16.20;99.90
19906;DHT22;10115;50.906;4.438;2022-10-31T16:58:49;16.20;99.90
19906;DHT22;10115;50.906;4.438;2022-10-31T17:01:14;16.10;99.90
19906;DHT22;10115;50.906;4.438;2022-10-31T17:03:41;16.10;99.90
19906;DHT22;10115;50.906;4.438;2022-10-31T17:06:10;16.10;99.90
19906;DHT22;10115;50.906;4.438;2022-10-31T17:08:37;16.00;99.90
19906;DHT22;10115;50.906;4.438;2022-10-31T17:11:03;15.90;99.90
19906;DHT22;10115;50.906;4.438;2022-10-31T17:13:30;15.80;99.90
19906;DHT22;10115;50.906;4.438;2022-10-31T17:15:59;15.90;99.90
19906;DHT22;10115;50.906;4.438;2022-10-31T17:18:25;15.90;99.90
19906;DHT22;10115;50.906;4.438;2022-10-31T17:20:55;15.70;99.90
19906;DHT22;10115;50.906;4.438;2022-10-31T17:23:23;15.60;99.90
19906;DHT22;10115;50.906;4.438;2022-10-31T17:25:49;15.70;99.90
19906;DHT22;10115;50.906;4.438;2022-10-31T17:28:15;15.70;99.90
19906;DHT22;10115;50.906;4.438;2022-10-31T17:30:41;15.70;99.90
19906;DHT22;10115;50.906;4.438;2022-10-31T17:33:15;15.70;99.90
19906;DHT22;10115;50.906;4.438;2022-10-31T17:35:42;15.70;99.90
19906;DHT22;10115;50.906;4.438;2022-10-31T17:38:09;15.70;99.90
19906;DHT22;10115;50.906;4.438;2022-10-31T17:40:37;15.70;99.90
19906;DHT22;10115;50.906;4.438;2022-10-31T17:43:03;15.60;99.90
19906;DHT22;10115;50.906;4.438;2022-10-31T17:45:29;15.50;99.90
19906;DHT22;10115;50.906;4.438;2022-10-31T17:47:55;15.60;99.90
19906;DHT22;10115;50.906;4.438;2022-10-31T17:50:23;15.60;99.90
19906;DHT22;10115;50.906;4.438;2022-10-31T17:52:49;15.60;99.90
19906;DHT22;10115;50.906;4.438;2022-10-31T17:55:15;15.60;99.90
19906;DHT22;10115;50.906;4.438;2022-10-31T17:57:42;15.60;99.90
19906;DHT22;10115;50.906;4.438;2022-10-31T18:00:13;15.70;99.90
19906;DHT22;10115;50.906;4.438;2022-10-31T18:02:39;15.70;99.90
19906;DHT22;10115;50.906;4.438;2022-10-31T18:05:05;15.70;99.90
19906;DHT22;10115;50.906;4.438;2022-10-31T18:07:32;15.60;99.90
19906;DHT22;10115;50.906;4.438;2022-10-31T18:09:58;15.70;99.90
19906;DHT22;10115;50.906;4.438;2022-10-31T18:12:24;15.70;99.90
19906;DHT22;10115;50.906;4.438;2022-10-31T18:14:51;15.80;99.90
19906;DHT22;10115;50.906;4.438;2022-10-31T18:17:17;16.00;99.90
19906;DHT22;10115;50.906;4.438;2022-10-31T18:19:42;16.10;99.90